createdAt,value
2018-11-10T12:10:02.997Z,59.00
2018-11-10T12:12:31.294Z,57.70
2018-11-10T12:14:59.645Z,56.10
2018-11-10T12:17:27.967Z,57.20
2018-11-10T12:19:56.283Z,55.30
2018-11-10T12:22:24.594Z,55.70
2018-11-10T12:24:53.925Z,54.00
2018-11-10T12:27:22.243Z,55.30
2018-11-10T12:29:50.883Z,50.20
2018-11-10T12:32:19.216Z,45.80
2018-11-10T12:34:47.535Z,46.60
2018-11-10T12:37:15.874Z,49.00
2018-11-10T12:39:44.190Z,50.80
2018-11-10T12:42:12.507Z,52.30
2018-11-10T12:44:40.831Z,53.40
2018-11-10T12:47:10.151Z,54.40
2018-11-10T12:49:38.458Z,54.80
2018-11-10T12:52:06.488Z,55.10
2018-11-10T12:54:34.779Z,55.80
2018-11-10T12:57:03.346Z,56.10
2018-11-10T12:59:31.799Z,56.40
2018-11-10T13:02:00.108Z,56.80
2018-11-10T13:04:28.451Z,56.90
2018-11-10T13:06:56.843Z,56.90
2018-11-10T13:09:25.143Z,57.50
2018-11-10T13:11:53.561Z,57.40
2018-11-10T13:14:21.856Z,57.60
2018-11-10T13:16:50.102Z,57.30
2018-11-10T13:19:18.434Z,57.50
2018-11-10T13:21:46.755Z,57.80
2018-11-10T13:24:15.111Z,58.00
2018-11-10T13:26:43.384Z,58.10
2018-11-10T13:29:11.707Z,58.20
2018-11-10T13:31:40.183Z,58.30
2018-11-10T13:34:09.370Z,58.40
2018-11-10T13:36:37.681Z,58.20
2018-11-10T13:39:07.772Z,58.00
2018-11-10T13:41:36.070Z,58.30
2018-11-10T13:44:04.568Z,58.40
2018-11-10T13:46:32.707Z,58.20
2018-11-10T13:49:01.035Z,58.40
2018-11-10T13:51:29.477Z,58.60
2018-11-10T13:53:57.658Z,58.70
2018-11-10T13:56:25.970Z,58.40
2018-11-10T13:58:54.291Z,58.40
2018-11-10T14:01:22.599Z,58.50
2018-11-10T14:03:50.929Z,58.50
2018-11-10T14:06:19.339Z,58.70
2018-11-10T14:08:47.650Z,58.60
2018-11-10T14:11:15.998Z,58.80
2018-11-10T14:13:44.342Z,59.20
2018-11-10T14:16:13.039Z,58.90
2018-11-10T14:18:41.408Z,58.80
2018-11-10T14:21:09.667Z,58.60
2018-11-10T14:23:37.987Z,58.60
2018-11-10T14:26:07.350Z,58.70
2018-11-10T14:28:35.624Z,58.80
2018-11-10T14:31:03.931Z,59.00
2018-11-10T14:33:32.258Z,58.80
2018-11-10T14:36:00.582Z,58.80
2018-11-10T14:38:29.902Z,58.90
2018-11-10T14:40:58.310Z,58.90
2018-11-10T14:43:26.644Z,58.80
2018-11-10T14:45:54.971Z,58.80
2018-11-10T14:48:23.293Z,58.70
2018-11-10T14:50:51.614Z,58.80
2018-11-10T14:53:19.988Z,58.80
2018-11-10T14:55:48.279Z,58.70
2018-11-10T14:58:16.683Z,58.80
2018-11-10T15:00:44.970Z,58.70
2018-11-10T15:03:13.278Z,58.70
2018-11-10T15:05:41.650Z,58.60
2018-11-10T15:08:09.901Z,58.70
2018-11-10T15:10:38.218Z,58.70
2018-11-10T15:13:06.722Z,58.60
2018-11-10T15:15:35.029Z,58.60
2018-11-10T15:18:03.414Z,58.60
2018-11-10T15:20:31.654Z,58.60
2018-11-10T15:22:59.959Z,58.60
2018-11-10T15:25:28.352Z,58.50
2018-11-10T15:27:56.592Z,58.60
2018-11-10T15:30:25.942Z,58.50
2018-11-10T15:32:54.254Z,58.50
2018-11-10T15:35:22.971Z,58.60
2018-11-10T15:37:52.133Z,58.50
2018-11-10T15:40:21.110Z,58.50
2018-11-10T15:42:49.410Z,58.50
2018-11-10T15:45:18.802Z,58.70
2018-11-10T15:47:47.111Z,58.60
2018-11-10T15:50:16.483Z,58.60
2018-11-10T15:52:44.723Z,58.60
2018-11-10T15:55:13.560Z,58.70
2018-11-10T15:57:42.100Z,58.70
2018-11-10T16:00:12.911Z,58.70
2018-11-10T16:02:41.458Z,58.60
2018-11-10T16:05:10.529Z,58.60
2018-11-10T16:07:39.049Z,58.80
2018-11-10T16:10:07.626Z,58.90
2018-11-10T16:12:36.007Z,58.80
2018-11-10T16:15:04.686Z,58.80
2018-11-10T16:17:33.021Z,58.70
2018-11-10T16:20:01.304Z,58.90
2018-11-10T16:22:29.614Z,58.80
2018-11-10T16:24:57.927Z,58.90
2018-11-10T16:27:26.278Z,58.80
2018-11-10T16:29:54.570Z,58.90
2018-11-10T16:32:22.863Z,58.90
2018-11-10T16:34:51.194Z,58.90
2018-11-10T16:37:19.578Z,58.90
2018-11-10T16:39:47.866Z,58.90
2018-11-10T16:42:16.166Z,58.90
2018-11-10T16:44:44.535Z,58.90
2018-11-10T16:47:12.807Z,58.90
2018-11-10T16:49:41.127Z,58.80
2018-11-10T16:52:09.446Z,58.80
2018-11-10T16:54:37.766Z,58.80
2018-11-10T16:57:06.059Z,58.80
2018-11-10T16:59:34.391Z,59.00
2018-11-10T17:02:02.681Z,59.00
2018-11-10T17:04:30.978Z,59.00
2018-11-10T17:06:59.291Z,59.00
2018-11-10T17:09:27.632Z,59.10
2018-11-10T17:11:55.944Z,59.30
2018-11-10T17:14:24.276Z,58.80
2018-11-10T17:16:52.565Z,58.90
2018-11-10T17:19:20.878Z,59.00
2018-11-10T17:21:50.343Z,58.70
2018-11-10T17:24:18.498Z,58.90
2018-11-10T17:26:46.810Z,58.90
2018-11-10T17:29:15.134Z,59.40
2018-11-10T17:31:43.578Z,59.30
2018-11-10T17:34:11.995Z,59.60
2018-11-10T17:36:40.323Z,59.60
2018-11-10T17:39:09.892Z,59.60
2018-11-10T17:41:38.133Z,59.90
2018-11-10T17:44:06.791Z,60.00
2018-11-10T17:46:35.078Z,59.90
2018-11-10T17:49:03.714Z,59.80
2018-11-10T17:51:32.059Z,60.00
2018-11-10T17:54:00.368Z,60.20
2018-11-10T17:56:28.668Z,60.20
2018-11-10T17:58:58.154Z,60.10
2018-11-10T18:01:26.460Z,60.10
2018-11-10T18:03:55.359Z,60.40
2018-11-10T18:06:25.546Z,60.30
2018-11-10T18:08:53.832Z,60.00
2018-11-10T18:11:25.388Z,59.90
2018-11-10T18:13:53.876Z,59.60
2018-11-10T18:16:22.209Z,60.10
2018-11-10T18:18:51.449Z,60.10
2018-11-10T18:21:19.733Z,60.30
2018-11-10T18:23:48.031Z,60.90
2018-11-10T18:26:16.332Z,60.80
2018-11-10T18:28:44.654Z,61.30
2018-11-10T18:31:12.972Z,61.10
2018-11-10T18:33:41.259Z,60.80
2018-11-10T18:36:09.565Z,60.50
2018-11-10T18:38:38.882Z,60.70
2018-11-10T18:41:08.082Z,60.40
2018-11-10T18:43:37.406Z,60.40
2018-11-10T18:46:05.917Z,60.50
2018-11-10T18:48:40.787Z,60.90
2018-11-10T18:51:09.087Z,60.50
2018-11-10T18:53:38.212Z,60.20
2018-11-10T18:56:09.075Z,60.30
2018-11-10T18:58:38.896Z,60.40
2018-11-10T19:01:09.231Z,60.40
2018-11-10T19:03:39.315Z,60.30
2018-11-10T19:06:08.432Z,60.50
2018-11-10T19:08:38.390Z,60.30
2018-11-10T19:11:07.329Z,60.50
2018-11-10T19:13:37.471Z,60.30
2018-11-10T19:16:08.235Z,60.30
2018-11-10T19:18:37.429Z,60.00
2018-11-10T19:21:13.148Z,60.10
2018-11-10T19:23:43.160Z,60.20
2018-11-10T19:26:11.694Z,60.10
2018-11-10T19:28:41.911Z,59.90
2018-11-10T19:31:11.177Z,60.30
2018-11-10T19:33:40.163Z,60.40
2018-11-10T19:36:09.164Z,59.90
2018-11-10T19:38:38.459Z,60.40
2018-11-10T19:41:07.653Z,60.50
2018-11-10T19:43:36.644Z,61.10
2018-11-10T19:46:05.800Z,60.30
2018-11-10T19:48:46.734Z,60.40
2018-11-10T19:51:16.187Z,60.90
2018-11-10T19:53:44.666Z,60.70
2018-11-10T19:56:13.582Z,61.20
2018-11-10T19:58:55.085Z,61.10
2018-11-10T20:01:23.446Z,60.90
2018-11-10T20:03:52.464Z,61.30
2018-11-10T20:06:22.647Z,61.40
2018-11-10T20:08:51.841Z,61.20
2018-11-10T20:11:21.967Z,61.10
2018-11-10T20:13:51.136Z,61.10
2018-11-10T20:16:20.351Z,61.40
2018-11-10T20:18:48.686Z,61.20
2018-11-10T20:21:17.018Z,61.20
2018-11-10T20:23:45.319Z,61.70
2018-11-10T20:26:13.639Z,61.20
2018-11-10T20:28:41.958Z,61.20
2018-11-10T20:31:10.313Z,60.90
2018-11-10T20:33:38.646Z,61.00
2018-11-10T20:36:07.953Z,60.90
2018-11-10T20:38:36.262Z,61.10
2018-11-10T20:41:04.939Z,61.10
2018-11-10T20:43:33.393Z,61.00
2018-11-10T20:46:02.765Z,61.60
2018-11-10T20:48:31.103Z,60.80
2018-11-10T20:50:59.426Z,60.80
2018-11-10T20:53:29.390Z,60.70
2018-11-10T20:55:57.686Z,60.80
2018-11-10T20:58:25.999Z,60.80
2018-11-10T21:00:54.287Z,60.80
2018-11-10T21:03:22.599Z,61.00
2018-11-10T21:05:50.921Z,60.80
2018-11-10T21:08:19.207Z,60.80
2018-11-10T21:10:47.528Z,60.80
2018-11-10T21:13:15.818Z,60.80
2018-11-10T21:15:44.162Z,61.00
2018-11-10T21:18:12.455Z,61.00
2018-11-10T21:20:40.778Z,60.90
2018-11-10T21:23:10.103Z,61.00
2018-11-10T21:25:38.423Z,61.10
2018-11-10T21:28:06.716Z,60.80
2018-11-10T21:30:35.038Z,60.80
2018-11-10T21:33:03.319Z,60.90
2018-11-10T21:35:33.353Z,61.10
2018-11-10T21:38:01.534Z,61.10
2018-11-10T21:40:29.847Z,60.70
2018-11-10T21:42:58.526Z,61.20
2018-11-10T21:45:26.890Z,60.90
2018-11-10T21:47:55.207Z,61.60
2018-11-10T21:50:23.514Z,60.80
2018-11-10T21:52:56.249Z,61.40
2018-11-10T21:55:24.591Z,61.60
2018-11-10T21:57:55.005Z,61.70
2018-11-10T22:00:23.961Z,61.60
2018-11-10T22:02:53.980Z,61.80
2018-11-10T22:05:22.326Z,62.10
2018-11-10T22:07:51.213Z,62.70
2018-11-10T22:10:19.940Z,61.70
2018-11-10T22:12:48.946Z,62.30
2018-11-10T22:15:19.747Z,62.30
2018-11-10T22:17:48.270Z,62.60
2018-11-10T22:20:18.066Z,62.50
2018-11-10T22:22:46.440Z,62.60
2018-11-10T22:25:15.187Z,62.40
2018-11-10T22:27:44.718Z,63.40
2018-11-10T22:30:15.037Z,62.60
2018-11-10T22:32:44.930Z,62.30
2018-11-10T22:35:13.255Z,62.50
2018-11-10T22:37:41.620Z,62.40
2018-11-10T22:40:11.862Z,62.50
2018-11-10T22:42:40.522Z,62.50
2018-11-10T22:45:10.333Z,62.40
2018-11-10T22:47:39.990Z,62.40
2018-11-10T22:50:09.942Z,62.20
2018-11-10T22:52:39.288Z,62.40
2018-11-10T22:55:08.418Z,62.20
2018-11-10T22:57:37.448Z,62.50
2018-11-10T23:00:09.570Z,61.70
2018-11-10T23:02:38.926Z,62.10
2018-11-10T23:05:07.238Z,62.30
2018-11-10T23:07:35.544Z,62.00
2018-11-10T23:10:04.746Z,62.10
2018-11-10T23:12:34.919Z,62.00
2018-11-10T23:15:03.270Z,61.90
2018-11-10T23:17:31.599Z,61.60
2018-11-10T23:19:59.915Z,61.90
2018-11-10T23:22:29.136Z,61.80
2018-11-10T23:24:57.432Z,61.90
2018-11-10T23:27:25.795Z,61.80
2018-11-10T23:29:55.006Z,61.90
2018-11-10T23:32:23.341Z,61.40
2018-11-10T23:34:51.758Z,61.90
2018-11-10T23:37:21.012Z,61.70
2018-11-10T23:39:49.424Z,61.40
2018-11-10T23:42:18.745Z,62.00
2018-11-10T23:44:47.058Z,62.10
2018-11-10T23:47:15.358Z,62.00
2018-11-10T23:49:43.662Z,61.90
2018-11-10T23:52:13.882Z,61.80
2018-11-10T23:54:42.740Z,61.80
2018-11-10T23:57:11.749Z,62.00
2018-11-10T23:59:41.085Z,61.80
